Petawawa Airport
CYWA : now visible

Airfield :











YOU CAN JOIN US ON...

 
LOGIN :

Register | Disclaimer

   EN    FR    IT 

 









Legend :    VFR   Marginal VFR   IFR   Intensive IFR   Very Intensive IFR
Visi :
Ceiling :
>= 8 km
>= 3000ft
5 to 8 km
1000 to 3000 ft
1500m to 5 km
500 to 1000 ft
800 to 1500m
200 to 500 ft
< 800m
< 200 ft
Symbols :   Thunderstorms  Fog  Heavy snow  Heavy precipitations  Wind > 20 kt







- Airport Elevation : 427 ft
- IATA code : YWA


CYWA - Petawawa

CURRENT METAR :
  • 210428Z AUTO 27002KT 5/8SM VV008 05/05 A2973

EXPIRED METARs :
  • 210400Z AUTO 00000KT 1/4SM RA VV001 05/05 A2973 RMK PCPN 2.5MM PAST HR SLP072
  • 210342Z AUTO 04002KT 1/4SM -RA BKN001 BKN061 BKN080 04/04 A2973
  • 210314Z AUTO 24002KT 2 1/2SM RA VV012 05/05 A2975
  • 210300Z AUTO 29003KT 5SM -RA OVC012 06/06 A2975 RMK PCPN 2.5MM PAST HR SLP078
  • 210246Z AUTO 25002KT 4SM RA OVC012 05/05 A2974
  • 210232Z AUTO 31002KT 2 1/2SM RA OVC012 06/06 A2973
  • 210201Z AUTO 05003KT 010V070 6SM RA OVC014 05/05 A2973
  • 210146Z AUTO 03002KT 9SM OVC014 06/05 A2973
  • 210142Z AUTO 04003KT 9SM OVC018 05/05 A2972

TAF AMD TAF CYWA
Valid from the 21 at 03:00 until the 21 at 12:00 UTC


210356Z 2103/2112 VRB03KT 1/4SM -SHRA FG VV001
TEMPO 2103/2106 3SM BR OVC010
FM210600 VRB03KT 3/4SM -DZ BR OVC003
TEMPO 2106/2112 3SM BR OVC006 RMK FCST BASED ON AUTO OBS. NXT FCST BY 210600Z
CZYZ FIR / North America



MET'MAP, your aeronautical weather chart ! - Copyright ORBIFLY December 2007 - Disclaimer

ORBIFLY MET'MAP TEAM :

Programming & Development : Alexandra Zaïnal
Concept & Development : Baudouin d'Aumeries
Co-Development & Prog : Marc-Olivier Méhu
Technical & hardware support : Manuel Goepfert

Contact : metmap@orbifly.com




SOURCES & CREDITS :

   NOAA       Earth
Advisory